createdAt,value
2023-02-11T00:00:40.054Z,99.85
2023-02-11T00:03:06.893Z,94.40
2023-02-11T00:05:33.730Z,101.50
2023-02-11T00:08:00.107Z,93.35
2023-02-11T00:10:26.482Z,95.20
2023-02-11T00:12:52.811Z,103.95
2023-02-11T00:15:19.132Z,96.90
2023-02-11T00:17:45.451Z,94.50
2023-02-11T00:20:11.760Z,95.45
2023-02-11T00:22:38.065Z,106.30
2023-02-11T00:25:04.643Z,103.40
2023-02-11T00:27:30.960Z,98.35
2023-02-11T00:29:57.278Z,103.93
2023-02-11T00:32:23.603Z,101.53
2023-02-11T00:34:52.540Z,103.05
2023-02-11T00:37:18.853Z,100.88
2023-02-11T00:39:45.206Z,106.32
2023-02-11T00:42:14.482Z,103.82
2023-02-11T00:44:40.888Z,106.38
2023-02-11T00:47:07.189Z,98.20
2023-02-11T00:49:33.657Z,100.93
2023-02-11T00:51:59.972Z,105.50
2023-02-11T00:54:28.394Z,106.47
2023-02-11T00:56:55.986Z,99.95
2023-02-11T00:59:22.293Z,96.20
2023-02-11T01:01:48.640Z,96.25
2023-02-11T01:04:15.008Z,104.00
2023-02-11T01:06:41.321Z,105.10
2023-02-11T01:09:07.636Z,94.53
2023-02-11T01:11:33.958Z,101.85
2023-02-11T01:14:00.292Z,92.28
2023-02-11T01:16:26.607Z,98.55
2023-02-11T01:18:52.933Z,102.40
2023-02-11T01:21:19.319Z,98.00
2023-02-11T01:23:45.627Z,98.47
2023-02-11T01:26:12.145Z,100.18
2023-02-11T01:28:38.582Z,94.60
2023-02-11T01:31:05.077Z,95.78
2023-02-11T01:33:31.515Z,102.38
2023-02-11T01:36:02.885Z,97.88
2023-02-11T01:38:29.922Z,99.47
2023-02-11T01:40:59.992Z,101.30
2023-02-11T01:43:31.009Z,96.70
2023-02-11T01:46:17.523Z,100.55
2023-02-11T01:48:47.669Z,95.25
2023-02-11T01:51:23.250Z,93.00
2023-02-11T01:53:49.976Z,96.38
2023-02-11T01:56:18.053Z,99.85
2023-02-11T01:58:47.081Z,96.60
2023-02-11T02:01:17.652Z,98.22
2023-02-11T02:03:47.620Z,104.55
2023-02-11T02:06:24.636Z,97.43
2023-02-11T02:09:01.136Z,96.22
2023-02-11T02:11:27.701Z,105.72
2023-02-11T02:13:54.012Z,91.45
2023-02-11T02:16:24.849Z,96.32
2023-02-11T02:19:13.658Z,104.50
2023-02-11T02:21:59.193Z,100.97
2023-02-11T02:24:43.477Z,94.63
2023-02-11T02:27:47.539Z,110.53
2023-02-11T02:30:55.744Z,96.88
2023-02-11T02:34:00.563Z,99.82
2023-02-11T02:36:57.067Z,99.40
2023-02-11T02:39:28.485Z,104.05
2023-02-11T02:41:56.738Z,112.10
2023-02-11T02:44:23.885Z,110.25
2023-02-11T02:46:50.249Z,108.20
2023-02-11T02:49:17.167Z,106.88
2023-02-11T02:52:07.075Z,100.43
2023-02-11T02:54:53.005Z,110.75
2023-02-11T02:57:37.625Z,110.65
2023-02-11T03:00:19.087Z,109.47
2023-02-11T03:03:15.623Z,111.13
2023-02-11T03:05:54.371Z,105.53
2023-02-11T03:09:05.883Z,102.00
2023-02-11T03:11:34.174Z,105.63
2023-02-11T03:14:04.571Z,99.68
2023-02-11T03:16:31.074Z,104.50
2023-02-11T03:19:03.681Z,109.15
2023-02-11T03:21:34.187Z,102.53
2023-02-11T03:24:05.739Z,105.22
2023-02-11T03:26:46.438Z,113.88
2023-02-11T03:29:18.607Z,114.13
2023-02-11T03:32:03.581Z,103.07
2023-02-11T03:34:37.808Z,103.00
2023-02-11T03:37:17.660Z,106.00
2023-02-11T03:39:54.966Z,103.80
2023-02-11T03:42:26.356Z,114.68
2023-02-11T03:45:00.323Z,100.47
2023-02-11T03:47:29.284Z,100.63
2023-02-11T03:49:58.794Z,116.90
2023-02-11T03:52:26.099Z,108.50
2023-02-11T03:54:55.988Z,105.15
2023-02-11T03:57:22.316Z,114.22
2023-02-11T03:59:59.260Z,110.45
2023-02-11T04:02:33.118Z,104.75
2023-02-11T04:04:59.998Z,82.57
2023-02-11T04:07:27.204Z,116.38
2023-02-11T04:09:53.720Z,110.93
2023-02-11T04:12:20.705Z,107.97
2023-02-11T04:14:47.035Z,101.75
2023-02-11T04:17:13.450Z,98.47
2023-02-11T04:19:39.807Z,102.35
2023-02-11T04:22:07.092Z,103.75
2023-02-11T04:24:33.747Z,99.55
2023-02-11T04:27:00.093Z,108.40
2023-02-11T04:29:26.645Z,102.47
2023-02-11T04:31:52.964Z,96.07
2023-02-11T04:34:19.294Z,101.03
2023-02-11T04:36:45.594Z,93.57
2023-02-11T04:39:11.988Z,96.78
2023-02-11T04:41:38.425Z,97.05
2023-02-11T04:44:05.368Z,101.15
2023-02-11T04:46:31.707Z,97.25
2023-02-11T04:48:58.170Z,92.25
2023-02-11T04:51:24.793Z,87.80
2023-02-11T04:53:51.132Z,85.25
2023-02-11T04:56:17.477Z,94.60
2023-02-11T04:58:43.792Z,85.10
2023-02-11T05:01:13.471Z,89.85
2023-02-11T05:03:40.317Z,86.43
2023-02-11T05:06:07.043Z,89.88
2023-02-11T05:08:33.422Z,79.65
2023-02-11T05:10:59.930Z,86.00
2023-02-11T05:13:26.217Z,76.75
2023-02-11T05:15:52.993Z,88.72
2023-02-11T05:18:19.406Z,85.22
2023-02-11T05:20:45.705Z,86.32
2023-02-11T05:23:12.286Z,79.47
2023-02-11T05:25:38.933Z,75.05
2023-02-11T05:28:06.241Z,79.63
2023-02-11T05:30:32.782Z,86.60
2023-02-11T05:32:59.077Z,84.05
2023-02-11T05:35:25.542Z,86.25
2023-02-11T05:37:51.847Z,83.88
2023-02-11T05:40:18.244Z,85.70
2023-02-11T05:42:44.523Z,87.53
2023-02-11T05:45:10.847Z,78.78
2023-02-11T05:47:37.139Z,86.43
2023-02-11T05:50:03.727Z,83.35
2023-02-11T05:52:30.054Z,80.70
2023-02-11T05:54:56.363Z,83.07
2023-02-11T05:57:22.999Z,78.43
2023-02-11T05:59:49.309Z,83.63
2023-02-11T06:02:15.687Z,83.18
2023-02-11T06:04:42.056Z,76.53
2023-02-11T06:07:08.398Z,72.38
2023-02-11T06:09:34.709Z,84.53
2023-02-11T06:12:01.018Z,73.28
2023-02-11T06:14:27.332Z,73.10
2023-02-11T06:16:53.659Z,85.93
2023-02-11T06:19:19.996Z,83.10
2023-02-11T06:21:46.342Z,82.47
2023-02-11T06:24:12.980Z,85.30
2023-02-11T06:26:39.314Z,82.10
2023-02-11T06:29:05.629Z,85.20
2023-02-11T06:31:32.094Z,74.82
2023-02-11T06:33:58.435Z,86.40
2023-02-11T06:36:25.056Z,77.70
2023-02-11T06:38:52.035Z,83.90
2023-02-11T06:41:19.893Z,80.22
2023-02-11T06:43:46.436Z,91.72
2023-02-11T06:46:13.151Z,85.85
2023-02-11T06:48:39.537Z,74.43
2023-02-11T06:51:08.468Z,75.38
2023-02-11T06:53:40.431Z,85.80
2023-02-11T06:56:09.875Z,82.57
2023-02-11T06:58:37.112Z,83.20
2023-02-11T07:01:08.550Z,79.55
2023-02-11T07:03:36.778Z,79.38
2023-02-11T07:06:04.129Z,83.53
2023-02-11T07:08:30.439Z,74.95
2023-02-11T07:10:56.740Z,82.32
2023-02-11T07:13:23.052Z,85.80
2023-02-11T07:15:49.708Z,75.88
2023-02-11T07:18:16.266Z,84.63
2023-02-11T07:20:42.824Z,85.50
2023-02-11T07:23:09.196Z,92.50
2023-02-11T07:25:36.080Z,84.32
2023-02-11T07:28:03.984Z,84.10
2023-02-11T07:30:30.340Z,85.00
2023-02-11T07:32:56.684Z,90.38
2023-02-11T07:35:22.992Z,80.80
2023-02-11T07:37:49.288Z,83.88
2023-02-11T07:40:15.670Z,88.47
2023-02-11T07:42:41.982Z,91.78
2023-02-11T07:45:08.738Z,88.82
2023-02-11T07:47:35.558Z,86.90
2023-02-11T07:50:01.880Z,84.57
2023-02-11T07:52:31.420Z,87.20
2023-02-11T07:54:57.734Z,84.07
2023-02-11T07:57:24.040Z,86.30
2023-02-11T07:59:50.335Z,88.10
2023-02-11T08:02:16.683Z,86.50
2023-02-11T08:04:42.988Z,94.13
2023-02-11T08:07:09.294Z,92.47
2023-02-11T08:09:35.645Z,83.18
2023-02-11T08:12:02.050Z,85.32
2023-02-11T08:14:28.354Z,97.60
2023-02-11T08:16:54.706Z,97.57
2023-02-11T08:19:21.066Z,86.75
2023-02-11T08:21:47.399Z,100.00
2023-02-11T08:24:13.735Z,87.20
2023-02-11T08:26:40.154Z,89.47
2023-02-11T08:29:10.793Z,79.00
2023-02-11T08:31:40.899Z,90.85
2023-02-11T08:34:07.245Z,86.25
2023-02-11T08:36:36.239Z,91.05
2023-02-11T08:39:18.470Z,98.53
2023-02-11T08:41:47.476Z,94.85
2023-02-11T08:44:13.905Z,92.07
2023-02-11T08:46:40.388Z,99.22
2023-02-11T08:49:06.692Z,99.25
2023-02-11T08:51:33.333Z,89.95
2023-02-11T08:54:00.731Z,95.05
2023-02-11T08:56:28.051Z,97.97
2023-02-11T08:58:54.822Z,97.82
2023-02-11T09:01:25.277Z,93.03
2023-02-11T09:03:51.736Z,93.70
2023-02-11T09:06:18.682Z,93.43
2023-02-11T09:08:48.516Z,88.63
2023-02-11T09:11:15.593Z,97.05
2023-02-11T09:13:43.584Z,91.55
2023-02-11T09:16:18.286Z,96.70
2023-02-11T09:18:44.696Z,91.95
2023-02-11T09:21:11.274Z,100.57
2023-02-11T09:23:37.596Z,88.13
2023-02-11T09:26:09.460Z,95.70
2023-02-11T09:28:35.986Z,92.72
2023-02-11T09:31:10.276Z,88.65
2023-02-11T09:33:38.615Z,89.53
2023-02-11T09:36:06.401Z,88.38
2023-02-11T09:38:33.221Z,94.80
2023-02-11T09:40:59.727Z,93.13
2023-02-11T09:43:53.873Z,94.22
2023-02-11T09:46:22.987Z,103.72
2023-02-11T09:48:51.736Z,108.20
2023-02-11T09:51:47.558Z,95.78
2023-02-11T09:54:23.180Z,91.97
2023-02-11T09:56:49.500Z,97.07
2023-02-11T09:59:16.634Z,96.70
2023-02-11T10:01:58.848Z,98.63
2023-02-11T10:04:59.346Z,102.18
2023-02-11T10:07:41.766Z,101.15
2023-02-11T10:10:35.172Z,96.07
2023-02-11T10:13:35.786Z,90.00
2023-02-11T10:16:40.628Z,96.03
2023-02-11T10:19:15.360Z,96.85
2023-02-11T10:21:57.411Z,89.68
2023-02-11T10:24:24.350Z,95.25
2023-02-11T10:26:51.748Z,89.35
2023-02-11T10:29:36.550Z,95.10
2023-02-11T10:32:10.991Z,99.68
2023-02-11T10:34:41.419Z,88.70
2023-02-11T10:37:12.845Z,91.90
2023-02-11T10:39:40.838Z,88.50
2023-02-11T10:42:11.693Z,97.07
2023-02-11T10:44:42.385Z,91.80
2023-02-11T10:47:18.675Z,95.70
2023-02-11T10:49:46.732Z,90.28
2023-02-11T10:52:17.433Z,95.20
2023-02-11T10:55:00.665Z,87.75
2023-02-11T10:57:40.514Z,96.28
2023-02-11T11:00:40.129Z,97.28
2023-02-11T11:03:19.919Z,93.88
2023-02-11T11:05:52.416Z,81.10
2023-02-11T11:08:19.535Z,87.80
2023-02-11T11:11:02.498Z,87.18
2023-02-11T11:13:34.916Z,84.47
2023-02-11T11:16:13.602Z,79.00
2023-02-11T11:18:41.650Z,79.35
2023-02-11T11:21:15.961Z,73.47
2023-02-11T11:23:49.995Z,73.57
2023-02-11T11:26:17.831Z,78.47
2023-02-11T11:28:54.760Z,70.28
2023-02-11T11:31:32.734Z,70.25
2023-02-11T11:34:03.460Z,66.63
2023-02-11T11:36:37.700Z,69.65
2023-02-11T11:39:24.683Z,68.20
2023-02-11T11:42:02.562Z,73.53
2023-02-11T11:44:35.246Z,67.55
2023-02-11T11:47:07.571Z,66.68
2023-02-11T11:49:41.630Z,65.47
2023-02-11T11:52:46.165Z,67.85
2023-02-11T11:55:22.629Z,68.07
2023-02-11T11:57:49.427Z,66.28
2023-02-11T12:00:20.775Z,68.80
2023-02-11T12:03:08.730Z,68.05
2023-02-11T12:05:44.129Z,67.60
2023-02-11T12:08:25.420Z,62.13
2023-02-11T12:11:16.582Z,70.00
2023-02-11T12:14:00.695Z,60.83
2023-02-11T12:16:50.830Z,67.25
2023-02-11T12:19:32.400Z,77.22
2023-02-11T12:22:26.469Z,69.72
2023-02-11T12:25:16.294Z,77.32
2023-02-11T12:27:45.354Z,68.55
2023-02-11T12:30:50.625Z,67.05
2023-02-11T12:34:07.998Z,71.85
2023-02-11T12:36:57.722Z,75.70
2023-02-11T12:39:44.231Z,68.40
2023-02-11T12:42:31.763Z,74.15
2023-02-11T12:45:08.745Z,72.35
2023-02-11T12:48:13.936Z,76.35
2023-02-11T12:50:54.857Z,75.43
2023-02-11T12:53:30.230Z,77.18
2023-02-11T12:56:04.724Z,80.10
2023-02-11T12:58:44.937Z,76.75
2023-02-11T13:01:24.520Z,71.75
2023-02-11T13:03:55.791Z,76.70
2023-02-11T13:06:29.141Z,78.47
2023-02-11T13:09:02.784Z,76.78
2023-02-11T13:11:40.169Z,73.55
2023-02-11T13:14:21.830Z,73.93
2023-02-11T13:16:50.532Z,69.53
2023-02-11T13:19:25.219Z,65.90
2023-02-11T13:22:04.067Z,68.88
2023-02-11T13:24:33.119Z,69.07
2023-02-11T13:27:24.681Z,67.70
2023-02-11T13:30:16.044Z,64.13
2023-02-11T13:32:54.677Z,69.05
2023-02-11T13:35:42.657Z,68.53
2023-02-11T13:38:19.722Z,71.85
2023-02-11T13:41:04.715Z,69.40
2023-02-11T13:43:33.621Z,67.47
2023-02-11T13:46:02.920Z,69.78
2023-02-11T13:48:33.254Z,63.05
2023-02-11T13:51:02.670Z,68.85
2023-02-11T13:53:29.733Z,66.20
2023-02-11T13:56:08.792Z,72.03
2023-02-11T13:58:49.571Z,68.40
2023-02-11T14:01:42.152Z,69.88
2023-02-11T14:04:23.193Z,64.53
2023-02-11T14:07:26.450Z,64.72
2023-02-11T14:09:52.771Z,68.88
2023-02-11T14:12:25.455Z,69.18
2023-02-11T14:15:18.873Z,68.88
2023-02-11T14:17:45.823Z,70.72
2023-02-11T14:20:32.948Z,74.07
2023-02-11T14:22:59.870Z,67.55
2023-02-11T14:25:26.846Z,63.63
2023-02-11T14:28:00.818Z,67.38
2023-02-11T14:30:34.690Z,61.00
2023-02-11T14:33:16.704Z,66.18
2023-02-11T14:36:05.219Z,69.10
2023-02-11T14:39:09.256Z,69.50
2023-02-11T14:41:41.564Z,70.30
2023-02-11T14:44:21.123Z,67.18
2023-02-11T14:46:49.821Z,71.13
2023-02-11T14:49:26.382Z,70.30
2023-02-11T14:51:56.282Z,73.65
2023-02-11T14:54:26.647Z,73.88
2023-02-11T14:57:16.102Z,72.55
2023-02-11T15:00:00.599Z,62.78
2023-02-11T15:02:34.755Z,72.25
2023-02-11T15:05:24.163Z,68.30
2023-02-11T15:07:54.103Z,72.20
2023-02-11T15:10:32.720Z,68.93
2023-02-11T15:13:00.706Z,65.43
2023-02-11T15:15:28.271Z,75.45
2023-02-11T15:17:58.019Z,73.93
2023-02-11T15:20:31.012Z,66.72
2023-02-11T15:23:07.556Z,67.10
2023-02-11T15:25:34.406Z,70.43
2023-02-11T15:28:00.972Z,74.05
2023-02-11T15:30:31.464Z,75.68
2023-02-11T15:33:00.521Z,67.00
2023-02-11T15:35:39.087Z,68.90
2023-02-11T15:38:05.749Z,73.57
2023-02-11T15:40:34.570Z,71.85
2023-02-11T15:43:03.089Z,73.97
2023-02-11T15:45:34.165Z,70.55
2023-02-11T15:48:14.213Z,73.72
2023-02-11T15:50:42.100Z,74.95
2023-02-11T15:53:56.547Z,83.32
2023-02-11T15:56:31.218Z,67.05
2023-02-11T15:59:00.179Z,75.95
2023-02-11T16:01:34.546Z,67.82
2023-02-11T16:04:02.077Z,72.85
2023-02-11T16:06:39.282Z,65.80
2023-02-11T16:09:23.289Z,70.22
2023-02-11T16:11:49.528Z,70.38
2023-02-11T16:14:27.936Z,72.50
2023-02-11T16:16:59.934Z,72.70
2023-02-11T16:19:28.317Z,69.03
2023-02-11T16:21:57.821Z,68.50
2023-02-11T16:24:31.842Z,70.88
2023-02-11T16:27:01.622Z,72.32
2023-02-11T16:29:36.215Z,78.63
2023-02-11T16:32:18.335Z,73.20
2023-02-11T16:34:45.082Z,75.93
2023-02-11T16:37:13.803Z,66.03
2023-02-11T16:39:40.600Z,69.97
2023-02-11T16:42:07.756Z,61.28
2023-02-11T16:44:35.167Z,63.42
2023-02-11T16:47:03.528Z,66.68
2023-02-11T16:49:32.890Z,73.68
2023-02-11T16:52:02.362Z,75.55
2023-02-11T16:54:29.515Z,69.50
2023-02-11T16:56:56.782Z,78.78
2023-02-11T16:59:23.389Z,76.80
2023-02-11T17:01:52.033Z,75.55
2023-02-11T17:04:29.791Z,69.35
2023-02-11T17:06:58.397Z,66.63
2023-02-11T17:09:30.356Z,64.93
2023-02-11T17:11:57.290Z,72.80
2023-02-11T17:14:23.581Z,67.15
2023-02-11T17:16:50.052Z,63.20
2023-02-11T17:19:22.158Z,67.00
2023-02-11T17:21:51.037Z,72.53
2023-02-11T17:24:18.563Z,69.60
2023-02-11T17:26:45.953Z,69.78
2023-02-11T17:29:16.660Z,74.55
2023-02-11T17:31:43.520Z,71.93
2023-02-11T17:34:10.510Z,71.82
2023-02-11T17:36:37.151Z,74.72
2023-02-11T17:39:07.695Z,67.72
2023-02-11T17:41:37.231Z,64.20
2023-02-11T17:44:04.128Z,63.05
2023-02-11T17:46:30.567Z,65.57
2023-02-11T17:48:59.080Z,67.80
2023-02-11T17:51:27.248Z,67.50
2023-02-11T17:53:53.972Z,65.63
2023-02-11T17:56:20.527Z,63.55
2023-02-11T17:58:47.569Z,63.90
2023-02-11T18:01:14.429Z,67.38
2023-02-11T18:03:40.810Z,71.75
2023-02-11T18:06:07.701Z,65.20
2023-02-11T18:08:35.335Z,67.20
2023-02-11T18:11:02.203Z,67.68
2023-02-11T18:13:29.751Z,67.13
2023-02-11T18:16:02.697Z,70.63
2023-02-11T18:18:29.148Z,62.63
2023-02-11T18:20:59.406Z,66.18
2023-02-11T18:23:26.271Z,62.85
2023-02-11T18:25:52.946Z,63.75
2023-02-11T18:28:19.691Z,69.25
2023-02-11T18:30:46.079Z,63.45
2023-02-11T18:33:12.731Z,68.97
2023-02-11T18:35:39.536Z,67.80
2023-02-11T18:38:05.900Z,66.65
2023-02-11T18:40:38.849Z,63.25
2023-02-11T18:43:08.116Z,66.90
2023-02-11T18:45:34.564Z,68.07
2023-02-11T18:48:00.906Z,70.88
2023-02-11T18:50:27.410Z,65.00
2023-02-11T18:52:53.717Z,65.72
2023-02-11T18:55:22.548Z,74.00
2023-02-11T18:57:49.813Z,66.43
2023-02-11T19:00:16.567Z,69.70
2023-02-11T19:02:42.863Z,73.53
2023-02-11T19:05:09.582Z,66.18
2023-02-11T19:07:35.965Z,76.07
2023-02-11T19:10:02.313Z,80.97
2023-02-11T19:12:28.596Z,79.32
2023-02-11T19:14:54.887Z,73.25
2023-02-11T19:17:21.234Z,76.18
2023-02-11T19:19:47.684Z,80.55
2023-02-11T19:22:13.974Z,85.65
2023-02-11T19:24:40.299Z,78.15
2023-02-11T19:27:06.607Z,76.10
2023-02-11T19:29:33.100Z,78.70
2023-02-11T19:31:59.483Z,78.82
2023-02-11T19:34:25.842Z,74.88
2023-02-11T19:36:52.632Z,74.05
2023-02-11T19:39:18.923Z,77.90
2023-02-11T19:41:45.302Z,76.55
2023-02-11T19:44:13.622Z,76.45
2023-02-11T19:46:40.245Z,82.68
2023-02-11T19:49:06.759Z,81.72
2023-02-11T19:51:33.732Z,80.18
2023-02-11T19:54:00.652Z,85.03
2023-02-11T19:56:27.591Z,77.55
2023-02-11T19:58:54.893Z,78.90
2023-02-11T20:01:22.731Z,83.15
2023-02-11T20:03:50.221Z,88.28
2023-02-11T20:06:19.904Z,83.25
2023-02-11T20:08:46.288Z,85.22
2023-02-11T20:11:16.985Z,79.25
2023-02-11T20:13:44.321Z,74.35
2023-02-11T20:16:16.280Z,76.82
2023-02-11T20:18:43.509Z,72.20
2023-02-11T20:21:16.123Z,71.07
2023-02-11T20:23:43.141Z,70.05
2023-02-11T20:26:13.074Z,78.05
2023-02-11T20:28:39.470Z,70.05
2023-02-11T20:31:06.864Z,67.20
2023-02-11T20:33:34.096Z,67.07
2023-02-11T20:36:07.624Z,61.38
2023-02-11T20:38:34.962Z,63.95
2023-02-11T20:41:11.446Z,63.85
2023-02-11T20:43:38.077Z,63.20
2023-02-11T20:46:06.012Z,62.20
2023-02-11T20:48:32.990Z,64.25
2023-02-11T20:51:04.345Z,65.13
2023-02-11T20:53:30.870Z,61.05
2023-02-11T20:56:00.488Z,62.13
2023-02-11T20:58:26.799Z,67.57
2023-02-11T21:00:53.234Z,69.93
2023-02-11T21:03:19.563Z,62.05
2023-02-11T21:05:45.913Z,60.08
2023-02-11T21:08:12.257Z,65.60
2023-02-11T21:10:38.612Z,65.00
2023-02-11T21:13:04.978Z,65.28
2023-02-11T21:15:31.342Z,66.35
2023-02-11T21:17:57.918Z,62.78
2023-02-11T21:20:24.314Z,63.83
2023-02-11T21:22:50.757Z,64.97
2023-02-11T21:25:17.492Z,69.10
2023-02-11T21:27:46.472Z,61.75
2023-02-11T21:30:13.409Z,63.08
2023-02-11T21:32:39.769Z,62.33
2023-02-11T21:35:06.839Z,63.47
2023-02-11T21:37:33.254Z,61.20
2023-02-11T21:39:59.863Z,62.28
2023-02-11T21:42:26.469Z,64.80
2023-02-11T21:44:52.800Z,58.90
2023-02-11T21:47:19.120Z,58.92
2023-02-11T21:49:45.427Z,57.05
2023-02-11T21:52:11.766Z,52.00
2023-02-11T21:54:38.115Z,55.88
2023-02-11T21:57:04.453Z,48.67
2023-02-11T21:59:30.826Z,56.05
2023-02-11T22:01:57.574Z,52.33
2023-02-11T22:04:24.239Z,50.45
2023-02-11T22:06:50.730Z,49.38
2023-02-11T22:09:17.285Z,57.50
2023-02-11T22:11:43.712Z,49.78
2023-02-11T22:14:10.178Z,52.78
2023-02-11T22:16:36.778Z,49.08
2023-02-11T22:19:03.379Z,45.55
2023-02-11T22:21:29.973Z,48.25
2023-02-11T22:23:56.700Z,44.92
2023-02-11T22:26:25.050Z,48.55
2023-02-11T22:28:52.126Z,41.65
2023-02-11T22:31:22.719Z,48.47
2023-02-11T22:33:49.722Z,43.00
2023-02-11T22:36:19.307Z,38.08
2023-02-11T22:38:45.717Z,40.25
2023-02-11T22:41:12.744Z,38.38
2023-02-11T22:43:39.632Z,38.50
2023-02-11T22:46:07.283Z,34.20
2023-02-11T22:48:35.179Z,35.85
2023-02-11T22:51:06.606Z,35.88
2023-02-11T22:53:33.257Z,37.92
2023-02-11T22:56:05.679Z,36.90
2023-02-11T22:58:32.414Z,36.35
2023-02-11T23:00:58.761Z,38.45
2023-02-11T23:03:25.259Z,43.33
2023-02-11T23:05:51.597Z,43.75
2023-02-11T23:08:18.246Z,42.72
2023-02-11T23:10:44.564Z,43.90
2023-02-11T23:13:10.887Z,41.60
2023-02-11T23:15:41.439Z,46.63
2023-02-11T23:18:09.049Z,42.38
2023-02-11T23:20:42.007Z,45.15
2023-02-11T23:23:08.750Z,48.17
2023-02-11T23:25:35.267Z,48.92
2023-02-11T23:28:01.683Z,41.45
2023-02-11T23:30:28.485Z,46.05
2023-02-11T23:32:54.805Z,53.10
2023-02-11T23:35:21.108Z,45.70
2023-02-11T23:37:48.452Z,42.97
2023-02-11T23:40:14.890Z,48.45
2023-02-11T23:42:41.510Z,50.65
2023-02-11T23:45:08.273Z,48.58
2023-02-11T23:47:35.051Z,45.50
2023-02-11T23:50:01.479Z,53.95
2023-02-11T23:52:27.787Z,50.45
2023-02-11T23:54:54.077Z,50.75
2023-02-11T23:57:20.401Z,48.95
2023-02-11T23:59:49.066Z,55.70
